sensor_id;sensor_type;location;lat;lon;timestamp;temperature;humidity
68385;DHT22;55336;43.062;25.626;2023-04-09T00:01:54;3.20;99.90
68385;DHT22;55336;43.062;25.626;2023-04-09T00:04:20;3.10;99.90
68385;DHT22;55336;43.062;25.626;2023-04-09T00:06:47;3.20;99.90
68385;DHT22;55336;43.062;25.626;2023-04-09T00:09:13;3.20;99.90
68385;DHT22;55336;43.062;25.626;2023-04-09T00:11:38;3.20;99.90
68385;DHT22;55336;43.062;25.626;2023-04-09T00:14:05;3.30;99.90
68385;DHT22;55336;43.062;25.626;2023-04-09T00:16:30;3.20;99.90
68385;DHT22;55336;43.062;25.626;2023-04-09T00:18:56;3.30;99.90
68385;DHT22;55336;43.062;25.626;2023-04-09T00:21:22;3.30;99.90
68385;DHT22;55336;43.062;25.626;2023-04-09T00:23:48;3.30;99.90
68385;DHT22;55336;43.062;25.626;2023-04-09T00:26:13;3.40;99.90
68385;DHT22;55336;43.062;25.626;2023-04-09T00:28:40;3.40;99.90
68385;DHT22;55336;43.062;25.626;2023-04-09T00:31:05;3.40;99.90
68385;DHT22;55336;43.062;25.626;2023-04-09T00:33:31;3.40;99.90
68385;DHT22;55336;43.062;25.626;2023-04-09T00:35:57;3.40;99.90
68385;DHT22;55336;43.062;25.626;2023-04-09T00:38:23;3.40;99.90
68385;DHT22;55336;43.062;25.626;2023-04-09T00:40:49;3.50;99.90
68385;DHT22;55336;43.062;25.626;2023-04-09T00:43:16;3.50;99.90
68385;DHT22;55336;43.062;25.626;2023-04-09T00:45:45;3.50;99.90
68385;DHT22;55336;43.062;25.626;2023-04-09T00:48:15;3.50;99.90
68385;DHT22;55336;43.062;25.626;2023-04-09T00:50:41;3.50;99.90
68385;DHT22;55336;43.062;25.626;2023-04-09T00:53:08;3.50;99.90
68385;DHT22;55336;43.062;25.626;2023-04-09T00:55:35;3.50;99.90
68385;DHT22;55336;43.062;25.626;2023-04-09T00:58:01;3.50;99.90
68385;DHT22;55336;43.062;25.626;2023-04-09T01:00:27;3.50;99.90
68385;DHT22;55336;43.062;25.626;2023-04-09T01:02:55;3.40;99.90
68385;DHT22;55336;43.062;25.626;2023-04-09T01:05:27;3.40;99.90
68385;DHT22;55336;43.062;25.626;2023-04-09T01:08:20;3.40;99.90
68385;DHT22;55336;43.062;25.626;2023-04-09T01:13:43;3.20;99.90
68385;DHT22;55336;43.062;25.626;2023-04-09T01:16:14;3.20;99.90
68385;DHT22;55336;43.062;25.626;2023-04-09T01:18:51;3.10;99.90
68385;DHT22;55336;43.062;25.626;2023-04-09T01:21:21;3.00;99.90
68385;DHT22;55336;43.062;25.626;2023-04-09T01:24:25;2.90;99.90
68385;DHT22;55336;43.062;25.626;2023-04-09T01:26:59;2.70;99.90
68385;DHT22;55336;43.062;25.626;2023-04-09T01:29:30;2.60;99.90
68385;DHT22;55336;43.062;25.626;2023-04-09T01:31:58;2.50;99.90
68385;DHT22;55336;43.062;25.626;2023-04-09T01:34:26;2.50;99.90
68385;DHT22;55336;43.062;25.626;2023-04-09T01:36:55;2.40;99.90
68385;DHT22;55336;43.062;25.626;2023-04-09T01:39:22;2.30;99.90
68385;DHT22;55336;43.062;25.626;2023-04-09T01:41:49;2.20;99.90
68385;DHT22;55336;43.062;25.626;2023-04-09T01:44:16;2.10;99.90
68385;DHT22;55336;43.062;25.626;2023-04-09T01:46:42;2.00;99.90
68385;DHT22;55336;43.062;25.626;2023-04-09T01:49:09;1.90;99.90
68385;DHT22;55336;43.062;25.626;2023-04-09T01:51:36;1.80;99.90
68385;DHT22;55336;43.062;25.626;2023-04-09T01:54:03;1.80;99.90
68385;DHT22;55336;43.062;25.626;2023-04-09T01:56:58;1.70;99.90
68385;DHT22;55336;43.062;25.626;2023-04-09T01:59:24;1.60;99.90
68385;DHT22;55336;43.062;25.626;2023-04-09T02:01:57;1.60;99.90
68385;DHT22;55336;43.062;25.626;2023-04-09T02:04:38;1.50;99.90
68385;DHT22;55336;43.062;25.626;2023-04-09T02:09:43;1.40;99.90
68385;DHT22;55336;43.062;25.626;2023-04-09T02:12:13;1.30;99.90
68385;DHT22;55336;43.062;25.626;2023-04-09T02:14:41;1.30;99.90
68385;DHT22;55336;43.062;25.626;2023-04-09T02:17:11;1.20;99.90
68385;DHT22;55336;43.062;25.626;2023-04-09T02:19:41;1.20;99.90
68385;DHT22;55336;43.062;25.626;2023-04-09T02:22:08;1.20;99.90
68385;DHT22;55336;43.062;25.626;2023-04-09T02:24:34;1.10;99.90
68385;DHT22;55336;43.062;25.626;2023-04-09T02:27:01;1.10;99.90
68385;DHT22;55336;43.062;25.626;2023-04-09T02:29:27;1.10;99.90
68385;DHT22;55336;43.062;25.626;2023-04-09T02:31:53;1.10;99.90
68385;DHT22;55336;43.062;25.626;2023-04-09T02:34:19;1.00;99.90
68385;DHT22;55336;43.062;25.626;2023-04-09T02:36:45;1.00;99.90
68385;DHT22;55336;43.062;25.626;2023-04-09T02:39:11;1.00;99.90
68385;DHT22;55336;43.062;25.626;2023-04-09T02:41:37;1.00;99.90
68385;DHT22;55336;43.062;25.626;2023-04-09T02:44:03;0.90;99.90
68385;DHT22;55336;43.062;25.626;2023-04-09T02:46:29;0.90;99.90
68385;DHT22;55336;43.062;25.626;2023-04-09T02:48:55;0.90;99.90
68385;DHT22;55336;43.062;25.626;2023-04-09T02:51:21;0.80;99.90
68385;DHT22;55336;43.062;25.626;2023-04-09T02:53:48;0.80;99.90
68385;DHT22;55336;43.062;25.626;2023-04-09T02:56:14;0.80;99.90
68385;DHT22;55336;43.062;25.626;2023-04-09T02:58:40;0.80;99.90
68385;DHT22;55336;43.062;25.626;2023-04-09T03:01:06;0.70;99.90
68385;DHT22;55336;43.062;25.626;2023-04-09T03:03:32;0.70;99.90
68385;DHT22;55336;43.062;25.626;2023-04-09T03:05:58;0.60;99.90
68385;DHT22;55336;43.062;25.626;2023-04-09T03:08:23;0.60;99.90
68385;DHT22;55336;43.062;25.626;2023-04-09T03:10:49;0.60;99.90
68385;DHT22;55336;43.062;25.626;2023-04-09T03:13:15;0.60;99.90
68385;DHT22;55336;43.062;25.626;2023-04-09T03:15:41;0.60;99.90
68385;DHT22;55336;43.062;25.626;2023-04-09T03:18:07;0.60;99.90
68385;DHT22;55336;43.062;25.626;2023-04-09T03:20:32;0.60;99.90
68385;DHT22;55336;43.062;25.626;2023-04-09T03:23:01;0.60;99.90
68385;DHT22;55336;43.062;25.626;2023-04-09T03:25:27;0.50;99.90
68385;DHT22;55336;43.062;25.626;2023-04-09T03:27:53;0.50;99.90
68385;DHT22;55336;43.062;25.626;2023-04-09T03:30:19;0.50;99.90
68385;DHT22;55336;43.062;25.626;2023-04-09T03:32:44;0.40;99.90
68385;DHT22;55336;43.062;25.626;2023-04-09T03:35:10;0.40;99.90
68385;DHT22;55336;43.062;25.626;2023-04-09T03:37:36;0.50;99.90
68385;DHT22;55336;43.062;25.626;2023-04-09T03:40:02;0.40;99.90
68385;DHT22;55336;43.062;25.626;2023-04-09T03:42:28;0.50;99.90
68385;DHT22;55336;43.062;25.626;2023-04-09T03:44:54;0.40;99.90
68385;DHT22;55336;43.062;25.626;2023-04-09T03:47:20;0.40;99.90
68385;DHT22;55336;43.062;25.626;2023-04-09T03:49:46;0.50;99.90
68385;DHT22;55336;43.062;25.626;2023-04-09T03:52:12;0.50;99.90
68385;DHT22;55336;43.062;25.626;2023-04-09T03:54:37;0.60;99.90
68385;DHT22;55336;43.062;25.626;2023-04-09T03:57:03;0.60;99.90
68385;DHT22;55336;43.062;25.626;2023-04-09T03:59:29;0.70;99.90
68385;DHT22;55336;43.062;25.626;2023-04-09T04:01:55;0.70;99.90
68385;DHT22;55336;43.062;25.626;2023-04-09T04:04:21;0.80;99.90
68385;DHT22;55336;43.062;25.626;2023-04-09T04:06:47;0.80;99.90
68385;DHT22;55336;43.062;25.626;2023-04-09T04:09:13;0.80;99.90
68385;DHT22;55336;43.062;25.626;2023-04-09T04:11:39;0.90;99.90
68385;DHT22;55336;43.062;25.626;2023-04-09T04:14:05;1.00;99.90
68385;DHT22;55336;43.062;25.626;2023-04-09T04:16:31;1.10;99.90
68385;DHT22;55336;43.062;25.626;2023-04-09T04:18:57;1.20;99.90
68385;DHT22;55336;43.062;25.626;2023-04-09T04:21:23;1.30;99.90
68385;DHT22;55336;43.062;25.626;2023-04-09T04:23:48;1.40;99.90
68385;DHT22;55336;43.062;25.626;2023-04-09T04:26:14;1.60;99.90
68385;DHT22;55336;43.062;25.626;2023-04-09T04:28:40;1.60;99.90
68385;DHT22;55336;43.062;25.626;2023-04-09T04:31:10;1.60;99.90
68385;DHT22;55336;43.062;25.626;2023-04-09T04:33:37;1.60;99.90
68385;DHT22;55336;43.062;25.626;2023-04-09T04:36:05;1.80;99.90
68385;DHT22;55336;43.062;25.626;2023-04-09T04:38:31;1.90;99.90
68385;DHT22;55336;43.062;25.626;2023-04-09T04:40:57;2.10;99.90
68385;DHT22;55336;43.062;25.626;2023-04-09T04:43:23;2.30;99.90
68385;DHT22;55336;43.062;25.626;2023-04-09T04:45:49;2.40;99.90
68385;DHT22;55336;43.062;25.626;2023-04-09T04:48:14;2.60;99.90
68385;DHT22;55336;43.062;25.626;2023-04-09T04:50:40;2.80;99.90
68385;DHT22;55336;43.062;25.626;2023-04-09T04:53:06;3.00;99.90
68385;DHT22;55336;43.062;25.626;2023-04-09T04:55:35;3.10;99.90
68385;DHT22;55336;43.062;25.626;2023-04-09T04:58:01;3.30;99.90
68385;DHT22;55336;43.062;25.626;2023-04-09T05:00:27;3.50;99.90
68385;DHT22;55336;43.062;25.626;2023-04-09T05:02:53;3.40;99.90
68385;DHT22;55336;43.062;25.626;2023-04-09T05:05:20;3.50;99.90
68385;DHT22;55336;43.062;25.626;2023-04-09T05:07:46;3.60;99.90
68385;DHT22;55336;43.062;25.626;2023-04-09T05:10:12;3.40;99.90
68385;DHT22;55336;43.062;25.626;2023-04-09T05:12:37;3.50;99.90
68385;DHT22;55336;43.062;25.626;2023-04-09T05:15:03;3.80;99.90
68385;DHT22;55336;43.062;25.626;2023-04-09T05:17:30;4.10;99.90
68385;DHT22;55336;43.062;25.626;2023-04-09T05:19:56;4.30;99.90
68385;DHT22;55336;43.062;25.626;2023-04-09T05:22:22;4.60;99.90
68385;DHT22;55336;43.062;25.626;2023-04-09T05:24:48;4.90;99.90
68385;DHT22;55336;43.062;25.626;2023-04-09T05:27:14;5.10;99.90
68385;DHT22;55336;43.062;25.626;2023-04-09T05:29:40;5.30;99.90
68385;DHT22;55336;43.062;25.626;2023-04-09T05:32:06;5.50;99.90
68385;DHT22;55336;43.062;25.626;2023-04-09T05:34:34;5.50;99.90
68385;DHT22;55336;43.062;25.626;2023-04-09T05:37:00;5.80;99.90
68385;DHT22;55336;43.062;25.626;2023-04-09T05:39:26;6.00;99.90
68385;DHT22;55336;43.062;25.626;2023-04-09T05:41:52;6.40;99.90
68385;DHT22;55336;43.062;25.626;2023-04-09T05:44:18;6.80;99.90
68385;DHT22;55336;43.062;25.626;2023-04-09T05:46:44;6.90;99.90
68385;DHT22;55336;43.062;25.626;2023-04-09T05:49:10;7.40;99.90
68385;DHT22;55336;43.062;25.626;2023-04-09T05:51:36;7.80;99.90
68385;DHT22;55336;43.062;25.626;2023-04-09T05:54:02;8.10;99.90
68385;DHT22;55336;43.062;25.626;2023-04-09T05:56:28;8.40;99.90
68385;DHT22;55336;43.062;25.626;2023-04-09T05:58:54;8.60;99.90
68385;DHT22;55336;43.062;25.626;2023-04-09T06:01:20;9.00;99.90
68385;DHT22;55336;43.062;25.626;2023-04-09T06:03:46;9.20;99.90
68385;DHT22;55336;43.062;25.626;2023-04-09T06:06:12;9.60;99.90
68385;DHT22;55336;43.062;25.626;2023-04-09T06:08:38;9.60;99.90
68385;DHT22;55336;43.062;25.626;2023-04-09T06:11:07;9.70;99.90
68385;DHT22;55336;43.062;25.626;2023-04-09T06:13:33;10.10;99.90
68385;DHT22;55336;43.062;25.626;2023-04-09T06:15:59;10.10;99.90
68385;DHT22;55336;43.062;25.626;2023-04-09T06:18:25;10.30;99.90
68385;DHT22;55336;43.062;25.626;2023-04-09T06:21:01;10.50;99.90
68385;DHT22;55336;43.062;25.626;2023-04-09T06:23:27;10.60;99.90
68385;DHT22;55336;43.062;25.626;2023-04-09T06:25:52;11.00;99.90
68385;DHT22;55336;43.062;25.626;2023-04-09T06:28:18;11.10;99.90
68385;DHT22;55336;43.062;25.626;2023-04-09T06:30:44;11.00;99.90
68385;DHT22;55336;43.062;25.626;2023-04-09T06:33:10;11.50;99.90
68385;DHT22;55336;43.062;25.626;2023-04-09T06:35:35;11.70;99.90
68385;DHT22;55336;43.062;25.626;2023-04-09T06:38:02;11.60;99.90
68385;DHT22;55336;43.062;25.626;2023-04-09T06:40:28;11.70;99.90
68385;DHT22;55336;43.062;25.626;2023-04-09T06:42:54;11.80;99.90
68385;DHT22;55336;43.062;25.626;2023-04-09T06:45:20;11.80;99.90
68385;DHT22;55336;43.062;25.626;2023-04-09T06:47:46;11.70;99.90
68385;DHT22;55336;43.062;25.626;2023-04-09T06:50:12;11.80;99.90
68385;DHT22;55336;43.062;25.626;2023-04-09T06:52:38;11.80;99.90
68385;DHT22;55336;43.062;25.626;2023-04-09T06:55:05;11.80;99.90
68385;DHT22;55336;43.062;25.626;2023-04-09T06:57:31;12.30;99.90
68385;DHT22;55336;43.062;25.626;2023-04-09T06:59:57;12.70;99.90
68385;DHT22;55336;43.062;25.626;2023-04-09T07:02:22;13.10;99.90
68385;DHT22;55336;43.062;25.626;2023-04-09T07:04:48;13.70;93.30
68385;DHT22;55336;43.062;25.626;2023-04-09T07:07:14;14.30;84.50
68385;DHT22;55336;43.062;25.626;2023-04-09T07:09:40;14.80;80.70
68385;DHT22;55336;43.062;25.626;2023-04-09T07:12:08;15.30;69.60
68385;DHT22;55336;43.062;25.626;2023-04-09T07:14:33;15.50;71.40
68385;DHT22;55336;43.062;25.626;2023-04-09T07:16:59;15.40;66.90
68385;DHT22;55336;43.062;25.626;2023-04-09T07:19:25;15.20;63.80
68385;DHT22;55336;43.062;25.626;2023-04-09T07:21:51;15.20;67.20
68385;DHT22;55336;43.062;25.626;2023-04-09T07:24:17;15.10;63.60
68385;DHT22;55336;43.062;25.626;2023-04-09T07:26:43;15.30;62.80
68385;DHT22;55336;43.062;25.626;2023-04-09T07:29:09;15.40;72.00
68385;DHT22;55336;43.062;25.626;2023-04-09T07:31:34;15.10;68.50
68385;DHT22;55336;43.062;25.626;2023-04-09T07:34:00;15.10;69.40
68385;DHT22;55336;43.062;25.626;2023-04-09T07:36:26;15.60;63.20
68385;DHT22;55336;43.062;25.626;2023-04-09T07:38:52;16.00;61.50
68385;DHT22;55336;43.062;25.626;2023-04-09T07:41:18;16.60;57.00
68385;DHT22;55336;43.062;25.626;2023-04-09T07:43:43;16.90;72.40
68385;DHT22;55336;43.062;25.626;2023-04-09T07:46:09;16.80;60.40
68385;DHT22;55336;43.062;25.626;2023-04-09T07:48:35;16.50;64.40
68385;DHT22;55336;43.062;25.626;2023-04-09T07:51:01;16.80;57.60
68385;DHT22;55336;43.062;25.626;2023-04-09T07:53:27;17.30;57.60
68385;DHT22;55336;43.062;25.626;2023-04-09T07:55:52;17.80;52.20
68385;DHT22;55336;43.062;25.626;2023-04-09T07:58:18;17.60;50.30
68385;DHT22;55336;43.062;25.626;2023-04-09T08:00:44;17.90;51.70
68385;DHT22;55336;43.062;25.626;2023-04-09T08:03:10;18.60;51.70
68385;DHT22;55336;43.062;25.626;2023-04-09T08:05:37;18.50;52.40
68385;DHT22;55336;43.062;25.626;2023-04-09T08:08:04;18.80;47.40
68385;DHT22;55336;43.062;25.626;2023-04-09T08:10:30;18.50;48.60
68385;DHT22;55336;43.062;25.626;2023-04-09T08:12:56;18.30;51.30
68385;DHT22;55336;43.062;25.626;2023-04-09T08:15:22;17.70;54.20
68385;DHT22;55336;43.062;25.626;2023-04-09T08:17:47;17.80;54.10
68385;DHT22;55336;43.062;25.626;2023-04-09T08:20:13;18.00;52.30
68385;DHT22;55336;43.062;25.626;2023-04-09T08:22:41;18.40;48.40
68385;DHT22;55336;43.062;25.626;2023-04-09T08:25:07;18.30;48.60
68385;DHT22;55336;43.062;25.626;2023-04-09T08:27:33;17.90;49.80
68385;DHT22;55336;43.062;25.626;2023-04-09T08:30:00;17.70;52.30
68385;DHT22;55336;43.062;25.626;2023-04-09T08:32:27;17.80;54.00
68385;DHT22;55336;43.062;25.626;2023-04-09T08:34:52;17.20;55.20
68385;DHT22;55336;43.062;25.626;2023-04-09T08:37:18;17.70;54.40
68385;DHT22;55336;43.062;25.626;2023-04-09T08:39:44;18.10;51.40
68385;DHT22;55336;43.062;25.626;2023-04-09T08:42:10;18.40;52.10
68385;DHT22;55336;43.062;25.626;2023-04-09T08:44:37;18.20;50.50
68385;DHT22;55336;43.062;25.626;2023-04-09T08:47:06;17.60;53.50
68385;DHT22;55336;43.062;25.626;2023-04-09T08:49:34;17.50;51.80
68385;DHT22;55336;43.062;25.626;2023-04-09T08:52:00;17.50;50.30
68385;DHT22;55336;43.062;25.626;2023-04-09T08:54:26;17.30;49.80
68385;DHT22;55336;43.062;25.626;2023-04-09T08:56:52;17.70;52.40
68385;DHT22;55336;43.062;25.626;2023-04-09T08:59:18;17.70;49.40
68385;DHT22;55336;43.062;25.626;2023-04-09T09:01:44;17.80;50.80
68385;DHT22;55336;43.062;25.626;2023-04-09T09:04:12;17.50;51.20
68385;DHT22;55336;43.062;25.626;2023-04-09T09:06:38;17.20;51.20
68385;DHT22;55336;43.062;25.626;2023-04-09T09:09:09;17.90;46.80
68385;DHT22;55336;43.062;25.626;2023-04-09T09:11:37;19.00;44.50
68385;DHT22;55336;43.062;25.626;2023-04-09T09:14:05;19.20;41.70
68385;DHT22;55336;43.062;25.626;2023-04-09T09:16:32;19.30;40.50
68385;DHT22;55336;43.062;25.626;2023-04-09T09:19:02;19.60;39.10
68385;DHT22;55336;43.062;25.626;2023-04-09T09:21:29;20.10;39.80
68385;DHT22;55336;43.062;25.626;2023-04-09T09:23:55;19.80;36.80
68385;DHT22;55336;43.062;25.626;2023-04-09T09:26:24;19.70;36.70
68385;DHT22;55336;43.062;25.626;2023-04-09T09:28:51;19.80;37.70
68385;DHT22;55336;43.062;25.626;2023-04-09T09:31:18;20.20;35.20
68385;DHT22;55336;43.062;25.626;2023-04-09T09:33:44;20.40;35.40
68385;DHT22;55336;43.062;25.626;2023-04-09T09:36:11;19.00;38.00
68385;DHT22;55336;43.062;25.626;2023-04-09T09:38:54;18.90;37.50
68385;DHT22;55336;43.062;25.626;2023-04-09T09:41:21;19.50;36.80
68385;DHT22;55336;43.062;25.626;2023-04-09T09:43:47;20.00;34.50
68385;DHT22;55336;43.062;25.626;2023-04-09T09:46:14;19.90;34.40
68385;DHT22;55336;43.062;25.626;2023-04-09T09:48:40;20.20;33.60
68385;DHT22;55336;43.062;25.626;2023-04-09T09:51:08;18.30;34.90
68385;DHT22;55336;43.062;25.626;2023-04-09T09:53:40;18.60;36.60
68385;DHT22;55336;43.062;25.626;2023-04-09T09:56:14;18.40;39.10
68385;DHT22;55336;43.062;25.626;2023-04-09T10:01:19;19.30;37.20
68385;DHT22;55336;43.062;25.626;2023-04-09T10:03:49;20.00;36.20
68385;DHT22;55336;43.062;25.626;2023-04-09T10:06:16;20.70;33.30
68385;DHT22;55336;43.062;25.626;2023-04-09T10:08:43;21.30;30.70
68385;DHT22;55336;43.062;25.626;2023-04-09T10:11:09;21.50;31.60
68385;DHT22;55336;43.062;25.626;2023-04-09T10:13:42;21.60;29.60
68385;DHT22;55336;43.062;25.626;2023-04-09T10:16:11;20.80;34.70
68385;DHT22;55336;43.062;25.626;2023-04-09T10:18:37;20.90;30.70
68385;DHT22;55336;43.062;25.626;2023-04-09T10:23:40;20.90;33.20
68385;DHT22;55336;43.062;25.626;2023-04-09T10:26:07;20.40;32.60
68385;DHT22;55336;43.062;25.626;2023-04-09T10:28:33;20.50;32.00
68385;DHT22;55336;43.062;25.626;2023-04-09T10:31:03;20.50;34.50
68385;DHT22;55336;43.062;25.626;2023-04-09T10:33:29;20.50;34.60
68385;DHT22;55336;43.062;25.626;2023-04-09T10:36:03;20.80;32.10
68385;DHT22;55336;43.062;25.626;2023-04-09T10:38:36;21.00;31.70
68385;DHT22;55336;43.062;25.626;2023-04-09T10:41:15;20.30;34.40
68385;DHT22;55336;43.062;25.626;2023-04-09T10:43:46;20.90;34.40
68385;DHT22;55336;43.062;25.626;2023-04-09T10:46:34;21.60;34.50
68385;DHT22;55336;43.062;25.626;2023-04-09T10:49:10;22.00;32.80
68385;DHT22;55336;43.062;25.626;2023-04-09T10:51:40;22.40;30.30
68385;DHT22;55336;43.062;25.626;2023-04-09T10:59:37;20.70;35.90
68385;DHT22;55336;43.062;25.626;2023-04-09T11:02:07;21.50;33.00
68385;DHT22;55336;43.062;25.626;2023-04-09T11:05:54;22.20;31.70
68385;DHT22;55336;43.062;25.626;2023-04-09T11:08:10;23.00;29.00
68385;DHT22;55336;43.062;25.626;2023-04-09T11:10:38;22.20;31.80
68385;DHT22;55336;43.062;25.626;2023-04-09T11:13:05;21.50;31.50
68385;DHT22;55336;43.062;25.626;2023-04-09T11:15:33;20.40;33.70
68385;DHT22;55336;43.062;25.626;2023-04-09T11:18:00;20.30;33.90
68385;DHT22;55336;43.062;25.626;2023-04-09T11:20:26;19.90;33.80
68385;DHT22;55336;43.062;25.626;2023-04-09T11:22:53;18.80;36.60
68385;DHT22;55336;43.062;25.626;2023-04-09T11:25:20;18.40;37.70
68385;DHT22;55336;43.062;25.626;2023-04-09T11:27:48;18.00;42.10
68385;DHT22;55336;43.062;25.626;2023-04-09T11:30:15;18.60;39.00
68385;DHT22;55336;43.062;25.626;2023-04-09T11:32:41;18.40;38.60
68385;DHT22;55336;43.062;25.626;2023-04-09T11:35:17;18.70;38.90
68385;DHT22;55336;43.062;25.626;2023-04-09T11:37:44;18.70;38.20
68385;DHT22;55336;43.062;25.626;2023-04-09T11:40:15;18.60;38.80
68385;DHT22;55336;43.062;25.626;2023-04-09T11:42:42;18.30;39.00
68385;DHT22;55336;43.062;25.626;2023-04-09T11:45:09;18.30;38.20
68385;DHT22;55336;43.062;25.626;2023-04-09T11:47:36;18.40;38.80
68385;DHT22;55336;43.062;25.626;2023-04-09T11:50:05;18.70;37.30
68385;DHT22;55336;43.062;25.626;2023-04-09T11:52:32;18.90;37.60
68385;DHT22;55336;43.062;25.626;2023-04-09T11:55:01;19.20;36.00
68385;DHT22;55336;43.062;25.626;2023-04-09T12:00:07;20.00;37.70
68385;DHT22;55336;43.062;25.626;2023-04-09T12:02:44;21.50;33.30
68385;DHT22;55336;43.062;25.626;2023-04-09T12:05:24;21.70;31.80
68385;DHT22;55336;43.062;25.626;2023-04-09T12:07:55;21.00;32.20
68385;DHT22;55336;43.062;25.626;2023-04-09T12:10:29;20.80;32.40
68385;DHT22;55336;43.062;25.626;2023-04-09T12:13:00;20.20;32.80
68385;DHT22;55336;43.062;25.626;2023-04-09T12:15:30;19.30;35.90
68385;DHT22;55336;43.062;25.626;2023-04-09T12:17:57;19.20;34.70
68385;DHT22;55336;43.062;25.626;2023-04-09T12:20:39;18.80;35.20
68385;DHT22;55336;43.062;25.626;2023-04-09T12:23:06;18.90;35.80
68385;DHT22;55336;43.062;25.626;2023-04-09T12:25:34;18.50;37.80
68385;DHT22;55336;43.062;25.626;2023-04-09T12:28:02;19.20;36.20
68385;DHT22;55336;43.062;25.626;2023-04-09T12:30:28;20.10;33.50
68385;DHT22;55336;43.062;25.626;2023-04-09T12:32:54;21.00;32.40
68385;DHT22;55336;43.062;25.626;2023-04-09T12:35:21;21.50;34.10
68385;DHT22;55336;43.062;25.626;2023-04-09T12:37:48;22.70;28.50
68385;DHT22;55336;43.062;25.626;2023-04-09T12:40:14;23.00;30.00
68385;DHT22;55336;43.062;25.626;2023-04-09T12:42:41;22.10;28.50
68385;DHT22;55336;43.062;25.626;2023-04-09T12:45:08;21.60;31.40
68385;DHT22;55336;43.062;25.626;2023-04-09T12:47:35;21.50;31.20
68385;DHT22;55336;43.062;25.626;2023-04-09T12:50:03;21.20;30.40
68385;DHT22;55336;43.062;25.626;2023-04-09T12:52:32;20.40;30.60
68385;DHT22;55336;43.062;25.626;2023-04-09T12:54:59;20.10;31.70
68385;DHT22;55336;43.062;25.626;2023-04-09T12:57:26;20.30;32.20
68385;DHT22;55336;43.062;25.626;2023-04-09T12:59:51;20.40;31.10
68385;DHT22;55336;43.062;25.626;2023-04-09T13:02:18;20.30;30.90
68385;DHT22;55336;43.062;25.626;2023-04-09T13:04:44;19.80;31.60
68385;DHT22;55336;43.062;25.626;2023-04-09T13:07:10;19.60;32.50
68385;DHT22;55336;43.062;25.626;2023-04-09T13:09:37;19.60;32.50
68385;DHT22;55336;43.062;25.626;2023-04-09T13:12:03;19.80;33.30
68385;DHT22;55336;43.062;25.626;2023-04-09T13:14:29;20.00;32.30
68385;DHT22;55336;43.062;25.626;2023-04-09T13:16:55;20.10;34.00
68385;DHT22;55336;43.062;25.626;2023-04-09T13:19:21;19.60;35.60
68385;DHT22;55336;43.062;25.626;2023-04-09T13:21:47;19.60;33.70
68385;DHT22;55336;43.062;25.626;2023-04-09T13:24:12;19.60;33.10
68385;DHT22;55336;43.062;25.626;2023-04-09T13:26:38;19.40;35.20
68385;DHT22;55336;43.062;25.626;2023-04-09T13:29:04;19.50;33.60
68385;DHT22;55336;43.062;25.626;2023-04-09T13:31:32;19.40;34.30
68385;DHT22;55336;43.062;25.626;2023-04-09T13:33:58;19.10;33.90
68385;DHT22;55336;43.062;25.626;2023-04-09T13:36:24;19.00;35.00
68385;DHT22;55336;43.062;25.626;2023-04-09T13:38:50;18.60;34.90
68385;DHT22;55336;43.062;25.626;2023-04-09T13:41:16;18.40;35.40
68385;DHT22;55336;43.062;25.626;2023-04-09T13:43:42;18.30;36.00
68385;DHT22;55336;43.062;25.626;2023-04-09T13:46:09;18.30;36.90
68385;DHT22;55336;43.062;25.626;2023-04-09T13:48:35;18.30;37.00
68385;DHT22;55336;43.062;25.626;2023-04-09T13:51:01;17.90;38.80
68385;DHT22;55336;43.062;25.626;2023-04-09T13:53:28;18.00;37.70
68385;DHT22;55336;43.062;25.626;2023-04-09T13:55:53;18.20;38.20
68385;DHT22;55336;43.062;25.626;2023-04-09T13:58:19;18.20;36.70
68385;DHT22;55336;43.062;25.626;2023-04-09T14:00:47;18.20;37.40
68385;DHT22;55336;43.062;25.626;2023-04-09T14:03:12;18.10;37.30
68385;DHT22;55336;43.062;25.626;2023-04-09T14:05:39;18.20;36.60
68385;DHT22;55336;43.062;25.626;2023-04-09T14:08:05;18.20;38.70
68385;DHT22;55336;43.062;25.626;2023-04-09T14:10:31;18.30;36.60
68385;DHT22;55336;43.062;25.626;2023-04-09T14:12:57;18.40;36.30
68385;DHT22;55336;43.062;25.626;2023-04-09T14:15:23;18.60;36.10
68385;DHT22;55336;43.062;25.626;2023-04-09T14:17:48;18.80;36.50
68385;DHT22;55336;43.062;25.626;2023-04-09T14:20:14;18.60;36.50
68385;DHT22;55336;43.062;25.626;2023-04-09T14:22:40;18.60;35.90
68385;DHT22;55336;43.062;25.626;2023-04-09T14:25:07;18.70;36.50
68385;DHT22;55336;43.062;25.626;2023-04-09T14:27:33;18.80;36.00
68385;DHT22;55336;43.062;25.626;2023-04-09T14:29:59;18.50;36.10
68385;DHT22;55336;43.062;25.626;2023-04-09T14:32:30;18.60;36.90
68385;DHT22;55336;43.062;25.626;2023-04-09T14:34:55;18.70;37.00
68385;DHT22;55336;43.062;25.626;2023-04-09T14:37:21;18.40;37.20
68385;DHT22;55336;43.062;25.626;2023-04-09T14:39:48;18.50;37.50
68385;DHT22;55336;43.062;25.626;2023-04-09T14:42:14;18.40;36.70
68385;DHT22;55336;43.062;25.626;2023-04-09T14:44:43;18.20;37.20
68385;DHT22;55336;43.062;25.626;2023-04-09T14:47:10;18.20;39.30
68385;DHT22;55336;43.062;25.626;2023-04-09T14:49:36;18.20;37.80
68385;DHT22;55336;43.062;25.626;2023-04-09T14:52:02;17.80;40.60
68385;DHT22;55336;43.062;25.626;2023-04-09T14:54:28;17.90;38.00
68385;DHT22;55336;43.062;25.626;2023-04-09T14:56:56;18.00;38.70
68385;DHT22;55336;43.062;25.626;2023-04-09T14:59:23;18.20;38.30
68385;DHT22;55336;43.062;25.626;2023-04-09T15:01:50;18.60;37.50
68385;DHT22;55336;43.062;25.626;2023-04-09T15:04:17;18.50;37.50
68385;DHT22;55336;43.062;25.626;2023-04-09T15:06:43;18.60;37.30
68385;DHT22;55336;43.062;25.626;2023-04-09T15:09:10;18.60;36.90
68385;DHT22;55336;43.062;25.626;2023-04-09T15:11:36;18.50;37.30
68385;DHT22;55336;43.062;25.626;2023-04-09T15:14:02;18.50;36.80
68385;DHT22;55336;43.062;25.626;2023-04-09T15:16:28;19.00;36.00
68385;DHT22;55336;43.062;25.626;2023-04-09T15:18:54;18.90;35.50
68385;DHT22;55336;43.062;25.626;2023-04-09T15:21:22;18.60;35.80
68385;DHT22;55336;43.062;25.626;2023-04-09T15:23:52;18.50;36.70
68385;DHT22;55336;43.062;25.626;2023-04-09T15:26:18;18.70;36.20
68385;DHT22;55336;43.062;25.626;2023-04-09T15:28:44;18.40;36.50
68385;DHT22;55336;43.062;25.626;2023-04-09T15:31:11;18.20;37.20
68385;DHT22;55336;43.062;25.626;2023-04-09T15:33:37;17.90;36.90
68385;DHT22;55336;43.062;25.626;2023-04-09T15:36:02;17.70;37.50
68385;DHT22;55336;43.062;25.626;2023-04-09T15:38:29;17.60;38.50
68385;DHT22;55336;43.062;25.626;2023-04-09T15:40:55;17.60;38.10
68385;DHT22;55336;43.062;25.626;2023-04-09T15:43:24;17.30;38.00